createdAt,value
2023-02-11T00:01:50.941Z,103440.78
2023-02-11T00:04:18.985Z,103440.97
2023-02-11T00:06:46.995Z,103442.22
2023-02-11T00:09:14.909Z,103445.00
2023-02-11T00:11:44.441Z,103443.34
2023-02-11T00:14:12.946Z,103435.69
2023-02-11T00:16:41.040Z,103430.53
2023-02-11T00:19:09.828Z,103424.28
2023-02-11T00:21:37.877Z,103419.84
2023-02-11T00:24:05.827Z,103417.94
2023-02-11T00:26:34.446Z,103417.81
2023-02-11T00:29:06.414Z,103416.00
2023-02-11T00:31:35.691Z,103409.06
2023-02-11T00:34:03.776Z,103421.94
2023-02-11T00:36:31.660Z,103415.81
2023-02-11T00:38:59.908Z,103420.97
2023-02-11T00:41:29.036Z,103425.22
2023-02-11T00:43:56.942Z,103416.50
2023-02-11T00:46:26.382Z,103425.13
2023-02-11T00:48:58.085Z,103425.13
2023-02-11T00:51:26.279Z,103428.56
2023-02-11T00:53:54.433Z,103429.28
2023-02-11T00:56:22.535Z,103432.63
2023-02-11T00:58:50.294Z,103437.78
2023-02-11T01:01:18.257Z,103444.72
2023-02-11T01:03:47.869Z,103448.06
2023-02-11T01:06:16.701Z,103453.44
2023-02-11T01:08:44.522Z,103453.44
2023-02-11T01:11:14.904Z,103454.22
2023-02-11T01:13:43.045Z,103443.84
2023-02-11T01:16:12.179Z,103442.94
2023-02-11T01:18:40.249Z,103430.84
2023-02-11T01:21:11.901Z,103442.03
2023-02-11T01:23:39.826Z,103441.25
2023-02-11T01:26:07.593Z,103439.47
2023-02-11T01:28:35.706Z,103428.16
2023-02-11T01:31:04.287Z,103421.13
2023-02-11T01:33:32.199Z,103426.28
2023-02-11T01:36:02.287Z,103414.19
2023-02-11T01:38:32.757Z,103406.06
2023-02-11T01:41:01.763Z,103398.50
2023-02-11T01:43:37.807Z,103404.81
2023-02-11T01:46:15.180Z,103402.81
2023-02-11T01:48:45.123Z,103407.53
2023-02-11T01:51:14.608Z,103395.81
2023-02-11T01:54:03.639Z,103393.16
2023-02-11T01:56:48.984Z,103389.22
2023-02-11T01:59:19.725Z,103382.59
2023-02-11T02:01:50.365Z,103382.72
2023-02-11T02:04:20.162Z,103391.09
2023-02-11T02:06:50.539Z,103391.47
2023-02-11T02:09:23.135Z,103389.84
2023-02-11T02:11:51.301Z,103390.41
2023-02-11T02:14:19.252Z,103391.63
2023-02-11T02:16:47.349Z,103388.69
2023-02-11T02:19:27.119Z,103380.97
2023-02-11T02:22:16.179Z,103382.78
2023-02-11T02:25:11.690Z,103389.66
2023-02-11T02:27:43.407Z,103390.44
2023-02-11T02:30:31.740Z,103393.59
2023-02-11T02:33:23.388Z,103394.06
2023-02-11T02:35:56.707Z,103397.59
2023-02-11T02:38:28.919Z,103389.56
2023-02-11T02:40:58.199Z,103394.34
2023-02-11T02:43:27.554Z,103396.66
2023-02-11T02:45:55.485Z,103394.63
2023-02-11T02:48:28.630Z,103391.47
2023-02-11T02:51:07.867Z,103392.78
2023-02-11T02:53:43.381Z,103376.47
2023-02-11T02:56:15.036Z,103373.59
2023-02-11T02:59:02.248Z,103370.47
2023-02-11T03:01:36.502Z,103364.38
2023-02-11T03:04:06.984Z,103368.19
2023-02-11T03:06:43.402Z,103360.03
2023-02-11T03:09:16.600Z,103358.94
2023-02-11T03:11:44.535Z,103361.50
2023-02-11T03:14:14.504Z,103355.69
2023-02-11T03:16:44.793Z,103354.72
2023-02-11T03:19:15.457Z,103354.38
2023-02-11T03:21:47.884Z,103355.03
2023-02-11T03:24:18.321Z,103351.50
2023-02-11T03:26:50.244Z,103353.47
2023-02-11T03:29:20.156Z,103343.09
2023-02-11T03:31:53.750Z,103342.69
2023-02-11T03:34:26.990Z,103343.31
2023-02-11T03:37:00.489Z,103340.66
2023-02-11T03:39:32.546Z,103335.31
2023-02-11T03:42:01.425Z,103333.03
2023-02-11T03:44:32.072Z,103330.69
2023-02-11T03:47:00.827Z,103329.91
2023-02-11T03:49:29.872Z,103335.94
2023-02-11T03:51:59.548Z,103343.78
2023-02-11T03:54:31.703Z,103345.66
2023-02-11T03:57:00.591Z,103351.13
2023-02-11T03:59:28.365Z,103354.22
2023-02-11T04:01:56.679Z,103351.00
2023-02-11T04:04:25.830Z,103351.97
2023-02-11T04:06:54.848Z,103352.19
2023-02-11T04:09:24.043Z,103356.78
2023-02-11T04:11:52.847Z,103357.97
2023-02-11T04:14:20.601Z,103363.34
2023-02-11T04:16:48.484Z,103366.00
2023-02-11T04:19:18.738Z,103368.16
2023-02-11T04:21:46.610Z,103356.91
2023-02-11T04:24:14.368Z,103356.47
2023-02-11T04:26:43.634Z,103369.03
2023-02-11T04:29:12.977Z,103363.75
2023-02-11T04:31:40.926Z,103361.19
2023-02-11T04:34:08.851Z,103365.44
2023-02-11T04:36:36.777Z,103361.19
2023-02-11T04:39:05.315Z,103363.88
2023-02-11T04:41:34.040Z,103353.81
2023-02-11T04:44:06.129Z,103360.03
2023-02-11T04:46:34.173Z,103356.69
2023-02-11T04:49:03.625Z,103361.59
2023-02-11T04:51:31.752Z,103369.91
2023-02-11T04:54:00.442Z,103363.75
2023-02-11T04:56:28.344Z,103377.53
2023-02-11T04:58:56.638Z,103378.63
2023-02-11T05:01:26.506Z,103379.75
2023-02-11T05:03:54.487Z,103380.06
2023-02-11T05:06:22.695Z,103384.63
2023-02-11T05:08:58.701Z,103388.28
2023-02-11T05:11:27.900Z,103379.94
2023-02-11T05:13:55.937Z,103384.38
2023-02-11T05:16:25.510Z,103377.63
2023-02-11T05:18:53.857Z,103382.91
2023-02-11T05:21:23.424Z,103377.78
2023-02-11T05:23:51.413Z,103381.13
2023-02-11T05:26:19.762Z,103380.34
2023-02-11T05:28:47.708Z,103378.56
2023-02-11T05:31:18.620Z,103379.44
2023-02-11T05:33:47.973Z,103385.50
2023-02-11T05:36:16.981Z,103381.22
2023-02-11T05:38:45.179Z,103381.34
2023-02-11T05:41:15.483Z,103384.69
2023-02-11T05:43:43.553Z,103380.53
2023-02-11T05:46:11.476Z,103384.13
2023-02-11T05:48:39.797Z,103384.13
2023-02-11T05:51:09.601Z,103383.34
2023-02-11T05:53:37.553Z,103389.34
2023-02-11T05:56:05.658Z,103384.34
2023-02-11T05:58:33.821Z,103387.91
2023-02-11T06:01:01.890Z,103388.09
2023-02-11T06:03:30.371Z,103383.06
2023-02-11T06:05:59.530Z,103379.69
2023-02-11T06:08:30.880Z,103376.25
2023-02-11T06:10:58.789Z,103382.28
2023-02-11T06:13:26.669Z,103383.19
2023-02-11T06:16:00.853Z,103378.91
2023-02-11T06:18:28.999Z,103389.34
2023-02-11T06:20:56.920Z,103380.63
2023-02-11T06:23:24.734Z,103368.63
2023-02-11T06:25:54.098Z,103369.53
2023-02-11T06:28:21.994Z,103372.19
2023-02-11T06:30:49.918Z,103373.91
2023-02-11T06:33:17.874Z,103379.03
2023-02-11T06:35:45.638Z,103376.47
2023-02-11T06:38:13.530Z,103382.59
2023-02-11T06:40:42.013Z,103385.28
2023-02-11T06:43:11.309Z,103380.94
2023-02-11T06:45:40.614Z,103377.56
2023-02-11T06:48:08.695Z,103385.38
2023-02-11T06:50:36.558Z,103380.25
2023-02-11T06:53:05.457Z,103381.13
2023-02-11T06:55:33.266Z,103370.72
2023-02-11T06:58:01.133Z,103372.53
2023-02-11T07:00:30.693Z,103371.66
2023-02-11T07:02:58.549Z,103367.38
2023-02-11T07:05:27.136Z,103369.94
2023-02-11T07:07:55.000Z,103371.72
2023-02-11T07:10:22.824Z,103378.69
2023-02-11T07:12:50.651Z,103381.25
2023-02-11T07:15:18.603Z,103387.28
2023-02-11T07:17:47.859Z,103385.59
2023-02-11T07:20:15.836Z,103387.28
2023-02-11T07:22:43.674Z,103390.84
2023-02-11T07:25:11.638Z,103394.44
2023-02-11T07:27:39.452Z,103393.50
2023-02-11T07:30:13.294Z,103394.53
2023-02-11T07:32:43.558Z,103396.31
2023-02-11T07:35:15.996Z,103398.09
2023-02-11T07:37:48.457Z,103395.53
2023-02-11T07:40:16.377Z,103405.91
2023-02-11T07:42:44.137Z,103411.94
2023-02-11T07:45:15.465Z,103414.63
2023-02-11T07:47:43.969Z,103413.72
2023-02-11T07:50:13.470Z,103411.94
2023-02-11T07:52:41.338Z,103417.09
2023-02-11T07:55:10.394Z,103415.44
2023-02-11T07:57:38.457Z,103416.44
2023-02-11T08:00:07.183Z,103417.31
2023-02-11T08:02:36.413Z,103414.81
2023-02-11T08:05:04.222Z,103408.03
2023-02-11T08:07:33.481Z,103410.69
2023-02-11T08:10:01.611Z,103415.94
2023-02-11T08:12:29.563Z,103415.28
2023-02-11T08:14:57.485Z,103423.97
2023-02-11T08:17:25.429Z,103413.00
2023-02-11T08:19:53.260Z,103425.19
2023-02-11T08:22:21.385Z,103420.34
2023-02-11T08:24:52.401Z,103423.94
2023-02-11T08:27:20.627Z,103429.28
2023-02-11T08:29:48.631Z,103432.84
2023-02-11T08:32:16.663Z,103426.31
2023-02-11T08:34:45.878Z,103431.81
2023-02-11T08:37:13.934Z,103439.84
2023-02-11T08:39:44.532Z,103441.06
2023-02-11T08:42:15.634Z,103442.16
2023-02-11T08:44:44.109Z,103442.34
2023-02-11T08:47:12.252Z,103444.22
2023-02-11T08:49:43.471Z,103447.09
2023-02-11T08:52:11.667Z,103445.63
2023-02-11T08:54:39.750Z,103455.44
2023-02-11T08:57:17.350Z,103457.44
2023-02-11T08:59:48.940Z,103464.69
2023-02-11T09:02:17.376Z,103469.25
2023-02-11T09:04:45.326Z,103467.88
2023-02-11T09:07:13.851Z,103464.91
2023-02-11T09:09:42.834Z,103465.50
2023-02-11T09:12:10.796Z,103475.50
2023-02-11T09:14:39.776Z,103473.44
2023-02-11T09:17:09.005Z,103480.75
2023-02-11T09:19:48.188Z,103482.72
2023-02-11T09:22:15.965Z,103482.94
2023-02-11T09:24:44.123Z,103481.34
2023-02-11T09:27:11.980Z,103483.03
2023-02-11T09:29:39.854Z,103480.44
2023-02-11T09:32:10.050Z,103481.22
2023-02-11T09:34:38.274Z,103478.56
2023-02-11T09:37:06.572Z,103483.53
2023-02-11T09:39:34.549Z,103488.59
2023-02-11T09:42:20.292Z,103497.19
2023-02-11T09:44:56.312Z,103491.25
2023-02-11T12:46:59.823Z,103479.88
2023-02-11T12:49:34.115Z,103470.16
2023-02-11T12:52:19.988Z,103475.03
2023-02-11T12:54:53.334Z,103467.25
2023-02-11T12:57:23.791Z,103473.25
2023-02-11T12:59:59.105Z,103478.28
2023-02-11T13:02:34.872Z,103476.94
2023-02-11T13:05:05.442Z,103467.47
2023-02-11T13:07:36.751Z,103462.22
2023-02-11T13:10:07.811Z,103460.81
2023-02-11T13:12:54.564Z,103461.78
2023-02-11T13:41:19.509Z,103473.72
2023-02-11T13:43:58.285Z,103478.00
2023-02-11T13:46:27.262Z,103474.19
2023-02-11T13:48:56.416Z,103473.66
2023-02-11T13:51:36.151Z,103475.66
2023-02-11T13:54:04.569Z,103471.84
2023-02-11T13:56:35.108Z,103457.78
2023-02-11T13:59:04.640Z,103466.13
2023-02-11T14:01:40.695Z,103461.28
2023-02-11T14:16:35.583Z,103443.59
2023-02-11T14:19:06.459Z,103433.75
2023-02-11T14:21:37.022Z,103424.06
2023-02-11T14:24:42.236Z,103429.38
2023-02-11T14:27:12.325Z,103434.25
2023-02-11T14:29:45.051Z,103424.50
2023-02-11T14:32:21.026Z,103434.66
2023-02-11T14:34:55.844Z,103424.38
2023-02-11T14:37:28.160Z,103412.97
2023-02-11T14:39:59.574Z,103411.06
2023-02-11T14:42:34.120Z,103413.69
2023-02-11T14:45:06.137Z,103417.06
2023-02-11T14:47:40.063Z,103411.75
2023-02-11T14:50:09.986Z,103417.53
2023-02-11T14:52:39.064Z,103421.84
2023-02-11T14:55:14.720Z,103423.38
2023-02-11T14:57:45.873Z,103417.16
2023-02-11T15:00:18.989Z,103418.72
2023-02-11T15:02:50.006Z,103421.06
2023-02-11T15:05:19.119Z,103425.22
2023-02-11T15:07:49.156Z,103421.53
2023-02-11T15:10:19.059Z,103421.22
2023-02-11T15:12:49.186Z,103421.81
2023-02-11T15:15:17.730Z,103417.72
2023-02-11T15:17:49.508Z,103418.34
2023-02-11T15:20:23.283Z,103412.47
2023-02-11T15:22:53.400Z,103421.69
2023-02-11T15:25:23.017Z,103420.56
2023-02-11T15:27:56.423Z,103422.75
2023-02-11T15:30:28.518Z,103417.09
2023-02-11T15:32:59.019Z,103417.75
2023-02-11T15:35:29.576Z,103430.53
2023-02-11T15:37:58.524Z,103430.16
2023-02-11T15:40:29.716Z,103426.31
2023-02-11T15:42:58.837Z,103422.50
2023-02-11T15:45:30.493Z,103423.91
2023-02-11T15:48:01.173Z,103428.72
2023-02-11T15:50:36.129Z,103428.41
2023-02-11T15:53:06.235Z,103430.00
2023-02-11T15:55:34.148Z,103429.69
2023-02-11T15:58:02.914Z,103441.66
2023-02-11T16:00:34.826Z,103438.81
2023-02-11T16:03:02.823Z,103432.44
2023-02-11T16:05:33.625Z,103431.72
2023-02-11T16:08:06.343Z,103440.44
2023-02-11T16:10:36.192Z,103433.03
2023-02-11T16:13:05.812Z,103436.19
2023-02-11T16:15:50.778Z,103427.25
2023-02-11T16:18:39.951Z,103434.69
2023-02-11T16:21:17.008Z,103434.34
2023-02-11T16:23:52.692Z,103432.34
2023-02-11T16:26:28.177Z,103436.53
2023-02-11T16:29:04.384Z,103438.06
2023-02-11T16:31:36.133Z,103441.28
2023-02-11T16:34:09.773Z,103441.19
2023-02-11T16:36:39.398Z,103449.84
2023-02-11T16:39:07.512Z,103445.47
2023-02-11T16:41:35.775Z,103443.59
2023-02-11T16:44:03.696Z,103445.19
2023-02-11T16:46:32.397Z,103441.63
2023-02-11T16:49:06.000Z,103438.88
2023-02-11T16:51:33.805Z,103447.16
2023-02-11T16:54:03.178Z,103446.88
2023-02-11T16:56:34.137Z,103445.91
2023-02-11T16:59:02.428Z,103449.13
2023-02-11T17:01:31.174Z,103445.34
2023-02-11T17:03:59.086Z,103449.53
2023-02-11T17:06:27.611Z,103442.47
2023-02-11T17:08:55.624Z,103450.84
2023-02-11T17:11:25.240Z,103454.13
2023-02-11T17:13:53.194Z,103452.22
2023-02-11T17:16:25.153Z,103455.53
2023-02-11T17:18:54.960Z,103459.63
2023-02-11T17:21:27.588Z,103462.03
2023-02-11T17:23:56.599Z,103468.78
2023-02-11T17:26:29.101Z,103460.06
2023-02-11T17:28:57.126Z,103466.81
2023-02-11T17:31:25.000Z,103472.69
2023-02-11T17:33:54.339Z,103469.09
2023-02-11T17:36:22.260Z,103467.22
2023-02-11T17:38:51.327Z,103461.97
2023-02-11T17:41:19.517Z,103466.16
2023-02-11T17:43:49.658Z,103464.28
2023-02-11T17:46:17.830Z,103464.19
2023-02-11T17:48:50.814Z,103465.00
2023-02-11T17:51:23.644Z,103470.81
2023-02-11T17:53:54.151Z,103468.16
2023-02-11T17:56:22.224Z,103467.28
2023-02-11T17:58:52.736Z,103474.91
2023-02-11T18:01:21.006Z,103472.31
2023-02-11T18:03:49.131Z,103479.91
2023-02-11T18:06:17.453Z,103479.00
2023-02-11T18:08:45.448Z,103481.50
2023-02-11T18:11:15.169Z,103477.03
2023-02-11T18:13:43.353Z,103488.06
2023-02-11T18:16:16.568Z,103483.69
2023-02-11T18:18:47.976Z,103488.75
2023-02-11T18:21:17.474Z,103486.06
2023-02-11T18:23:46.042Z,103485.19
2023-02-11T18:26:14.554Z,103492.81
2023-02-11T18:28:45.620Z,103493.63
2023-02-11T18:31:16.101Z,103494.44
2023-02-11T18:33:44.069Z,103496.00
2023-02-11T18:36:14.424Z,103497.59
2023-02-11T18:38:44.521Z,103497.41
2023-02-11T18:41:12.326Z,103500.66
2023-02-11T18:43:41.684Z,103507.53
2023-02-11T18:46:10.467Z,103498.78
2023-02-11T18:48:41.560Z,103498.72
2023-02-11T18:51:09.908Z,103503.75
2023-02-11T18:53:37.755Z,103504.56
2023-02-11T18:56:13.367Z,103510.53
2023-02-11T18:58:41.584Z,103513.88
2023-02-11T19:01:13.833Z,103511.22
2023-02-11T19:03:45.982Z,103516.16
2023-02-11T19:06:18.455Z,103517.84
2023-02-11T19:08:46.883Z,103524.69
2023-02-11T19:11:16.305Z,103528.97
2023-02-11T19:13:47.762Z,103522.03
2023-02-11T19:16:19.861Z,103530.56
2023-02-11T19:18:51.334Z,103526.19
2023-02-11T19:21:20.932Z,103516.66
2023-02-11T19:23:49.023Z,103517.56
2023-02-11T19:26:17.353Z,103520.03
2023-02-11T19:28:45.440Z,103522.53
2023-02-11T19:31:13.644Z,103512.13
2023-02-11T19:33:41.607Z,103518.06
2023-02-11T19:36:16.443Z,103511.13
2023-02-11T19:38:44.756Z,103513.59
2023-02-11T19:41:13.341Z,103506.44
2023-02-11T19:43:52.827Z,103504.66
2023-02-11T19:46:21.986Z,103509.72
2023-02-11T19:48:51.842Z,103501.78
2023-02-11T19:51:22.246Z,103504.25
2023-02-11T19:53:52.676Z,103509.34
2023-02-11T19:56:21.030Z,103504.06
2023-02-11T19:58:49.639Z,103507.41
2023-02-11T20:01:18.731Z,103502.97
2023-02-11T20:03:49.393Z,103502.09
2023-02-11T20:06:18.741Z,103493.44
2023-02-11T20:08:48.560Z,103494.22
2023-02-11T20:11:24.460Z,103492.47
2023-02-11T20:13:52.532Z,103495.84
2023-02-11T20:16:23.096Z,103500.09
2023-02-11T20:18:52.085Z,103492.25
2023-02-11T20:21:20.801Z,103502.56
2023-02-11T20:23:52.522Z,103500.78
2023-02-11T20:26:21.759Z,103509.28
2023-02-11T20:28:50.397Z,103505.06
2023-02-11T20:31:18.513Z,103514.44
2023-02-11T20:33:48.494Z,103504.22
2023-02-11T20:36:17.930Z,103508.41
2023-02-11T20:38:45.940Z,103506.53
2023-02-11T20:41:16.494Z,103508.19
2023-02-11T20:43:46.251Z,103505.53
2023-02-11T20:46:16.350Z,103514.16
2023-02-11T20:48:44.701Z,103510.69
2023-02-11T20:51:13.981Z,103509.78
2023-02-11T20:53:48.866Z,103511.47
2023-02-11T20:56:28.099Z,103518.31
2023-02-11T20:58:56.997Z,103514.84
2023-02-11T21:01:36.866Z,103509.59
2023-02-11T21:04:06.638Z,103519.91
2023-02-11T21:06:37.714Z,103522.34
2023-02-11T21:09:07.493Z,103527.50
2023-02-11T21:11:38.877Z,103527.50
2023-02-11T21:14:07.081Z,103534.38
2023-02-11T21:16:35.589Z,103534.38
2023-02-11T21:19:05.091Z,103529.13
2023-02-11T21:21:33.168Z,103534.28
2023-02-11T21:24:01.359Z,103540.22
2023-02-11T21:26:29.820Z,103539.22
2023-02-11T21:29:02.780Z,103545.16
2023-02-11T21:31:32.177Z,103542.47
2023-02-11T21:34:02.862Z,103542.34
2023-02-11T21:39:13.782Z,103536.22
2023-02-11T21:41:41.621Z,103544.75
2023-02-11T21:44:12.287Z,103539.50
2023-02-11T21:46:40.433Z,103545.31
2023-02-11T21:49:08.338Z,103548.66
2023-02-11T21:52:16.168Z,103545.13
2023-02-11T21:54:44.439Z,103548.50
2023-02-11T21:57:12.197Z,103550.06
2023-02-11T21:59:41.796Z,103553.41
2023-02-11T22:02:10.597Z,103544.81
2023-02-11T22:04:39.716Z,103541.31
2023-02-11T22:07:12.812Z,103546.47
2023-02-11T22:09:41.079Z,103545.50
2023-02-11T22:12:10.166Z,103543.72
2023-02-11T22:14:38.287Z,103548.88
2023-02-11T22:17:08.728Z,103553.09
2023-02-11T22:19:36.762Z,103549.66
2023-02-11T22:22:04.888Z,103552.22
2023-02-11T22:24:32.701Z,103543.59
2023-02-11T22:27:00.713Z,103546.28
2023-02-11T22:29:28.798Z,103551.44
2023-02-11T22:31:56.845Z,103545.28
2023-02-11T22:34:26.709Z,103536.53
2023-02-11T22:36:54.456Z,103534.88
2023-02-11T22:39:22.452Z,103539.13
2023-02-11T22:41:50.704Z,103539.91
2023-02-11T22:44:20.132Z,103535.53
2023-02-11T22:46:48.497Z,103537.34
2023-02-11T22:49:17.466Z,103539.03
2023-02-11T22:51:50.688Z,103540.69
2023-02-11T22:54:22.561Z,103543.97
2023-02-11T22:56:51.833Z,103539.50
2023-02-11T22:59:21.222Z,103543.88
2023-02-11T23:01:49.220Z,103539.50
2023-02-11T23:04:19.304Z,103542.94
2023-02-11T23:06:50.783Z,103547.22
2023-02-11T23:09:18.960Z,103547.22
2023-02-11T23:11:48.622Z,103547.22
2023-02-11T23:14:16.464Z,103543.88
2023-02-11T23:16:45.924Z,103546.53
2023-02-11T23:19:17.245Z,103538.72
2023-02-11T23:21:47.741Z,103541.19
2023-02-11T23:24:17.332Z,103541.97
2023-02-11T23:26:45.735Z,103548.00
2023-02-11T23:29:14.207Z,103537.00
2023-02-11T23:31:44.063Z,103548.09
2023-02-11T23:34:12.241Z,103550.69
2023-02-11T23:36:40.224Z,103548.09
2023-02-11T23:39:08.059Z,103548.09
2023-02-11T23:41:37.475Z,103548.00
2023-02-11T23:44:06.489Z,103543.63
2023-02-11T23:46:34.604Z,103547.00
2023-02-11T23:49:03.028Z,103556.50
2023-02-11T23:51:31.537Z,103549.56
2023-02-11T23:53:59.623Z,103551.38
2023-02-11T23:56:28.466Z,103555.72
2023-02-11T23:58:58.963Z,103558.22
